sensor_id;sensor_type;location;lat;lon;timestamp;pressure;altitude;pressure_sealevel;temperature;humidity
71504;BME280;59323;50.874;7.028;2023-02-10T00:01:19;103244.88;;;0.81;91.37
71504;BME280;59323;50.874;7.028;2023-02-10T00:03:45;103242.44;;;0.79;91.71
71504;BME280;59323;50.874;7.028;2023-02-10T00:06:12;103255.56;;;0.81;91.62
71504;BME280;59323;50.874;7.028;2023-02-10T00:08:38;103252.91;;;0.81;91.28
71504;BME280;59323;50.874;7.028;2023-02-10T00:11:08;103269.75;;;0.81;90.85
71504;BME280;59323;50.874;7.028;2023-02-10T00:13:35;103266.84;;;0.83;91.00
71504;BME280;59323;50.874;7.028;2023-02-10T00:16:02;103269.88;;;0.86;90.92
71504;BME280;59323;50.874;7.028;2023-02-10T00:18:28;103271.38;;;0.82;90.27
71504;BME280;59323;50.874;7.028;2023-02-10T00:20:54;103273.84;;;0.84;90.68
71504;BME280;59323;50.874;7.028;2023-02-10T00:23:20;103272.78;;;0.85;90.42
71504;BME280;59323;50.874;7.028;2023-02-10T00:25:45;103272.78;;;0.85;91.06
71504;BME280;59323;50.874;7.028;2023-02-10T00:28:11;103277.91;;;0.86;90.62
71504;BME280;59323;50.874;7.028;2023-02-10T00:30:37;103270.09;;;0.85;90.85
71504;BME280;59323;50.874;7.028;2023-02-10T00:33:02;103266.63;;;0.84;90.59
71504;BME280;59323;50.874;7.028;2023-02-10T00:35:28;103263.69;;;0.86;91.30
71504;BME280;59323;50.874;7.028;2023-02-10T00:37:53;103276.59;;;0.89;91.26
71504;BME280;59323;50.874;7.028;2023-02-10T00:40:18;103278.81;;;0.92;90.84
71504;BME280;59323;50.874;7.028;2023-02-10T00:42:44;103278.25;;;0.90;90.55
71504;BME280;59323;50.874;7.028;2023-02-10T00:45:09;103262.88;;;0.85;91.16
71504;BME280;59323;50.874;7.028;2023-02-10T00:47:35;103275.56;;;0.90;91.18
71504;BME280;59323;50.874;7.028;2023-02-10T00:50:00;103280.91;;;0.90;90.93
71504;BME280;59323;50.874;7.028;2023-02-10T00:52:25;103278.34;;;0.95;90.46
71504;BME280;59323;50.874;7.028;2023-02-10T00:54:51;103285.56;;;0.94;90.35
71504;BME280;59323;50.874;7.028;2023-02-10T00:57:16;103286.84;;;0.92;90.14
71504;BME280;59323;50.874;7.028;2023-02-10T00:59:42;103287.91;;;0.91;90.50
71504;BME280;59323;50.874;7.028;2023-02-10T01:02:07;103282.31;;;0.92;90.97
71504;BME280;59323;50.874;7.028;2023-02-10T01:04:33;103284.50;;;0.95;90.50
71504;BME280;59323;50.874;7.028;2023-02-10T01:06:58;103282.88;;;0.94;90.48
71504;BME280;59323;50.874;7.028;2023-02-10T01:09:24;103279.16;;;0.95;90.55
71504;BME280;59323;50.874;7.028;2023-02-10T01:11:49;103277.88;;;0.98;90.71
71504;BME280;59323;50.874;7.028;2023-02-10T01:14:15;103275.19;;;0.98;90.47
71504;BME280;59323;50.874;7.028;2023-02-10T01:16:41;103286.72;;;0.99;90.62
71504;BME280;59323;50.874;7.028;2023-02-10T01:19:07;103296.59;;;0.98;90.82
71504;BME280;59323;50.874;7.028;2023-02-10T01:21:33;103297.41;;;0.99;91.05
71504;BME280;59323;50.874;7.028;2023-02-10T01:23:58;103294.50;;;1.00;90.44
71504;BME280;59323;50.874;7.028;2023-02-10T01:26:24;103290.78;;;1.01;91.26
71504;BME280;59323;50.874;7.028;2023-02-10T01:28:50;103298.00;;;1.01;90.79
71504;BME280;59323;50.874;7.028;2023-02-10T01:31:18;103291.81;;;1.00;91.17
71504;BME280;59323;50.874;7.028;2023-02-10T01:33:44;103294.28;;;1.02;91.89
71504;BME280;59323;50.874;7.028;2023-02-10T01:36:14;103300.44;;;1.02;91.89
71504;BME280;59323;50.874;7.028;2023-02-10T01:38:41;103307.66;;;1.02;91.67
71504;BME280;59323;50.874;7.028;2023-02-10T01:41:07;103304.16;;;1.01;91.11
71504;BME280;59323;50.874;7.028;2023-02-10T01:43:51;103309.84;;;1.05;91.05
71504;BME280;59323;50.874;7.028;2023-02-10T01:46:17;103301.00;;;1.04;90.96
71504;BME280;59323;50.874;7.028;2023-02-10T01:48:43;103311.25;;;1.07;91.32
71504;BME280;59323;50.874;7.028;2023-02-10T01:51:08;103311.81;;;1.09;91.69
71504;BME280;59323;50.874;7.028;2023-02-10T01:53:34;103306.81;;;1.13;90.91
71504;BME280;59323;50.874;7.028;2023-02-10T01:56:01;103305.41;;;1.10;91.19
71504;BME280;59323;50.874;7.028;2023-02-10T01:58:29;103307.28;;;1.10;91.52
71504;BME280;59323;50.874;7.028;2023-02-10T02:00:56;103305.41;;;1.10;90.71
71504;BME280;59323;50.874;7.028;2023-02-10T02:03:21;103305.91;;;1.07;90.49
71504;BME280;59323;50.874;7.028;2023-02-10T02:05:47;103309.97;;;1.10;90.88
71504;BME280;59323;50.874;7.028;2023-02-10T02:08:21;103311.81;;;1.09;91.35
71504;BME280;59323;50.874;7.028;2023-02-10T02:11:10;103314.50;;;1.09;91.38
71504;BME280;59323;50.874;7.028;2023-02-10T02:19:17;103309.50;;;1.13;91.86
71504;BME280;59323;50.874;7.028;2023-02-10T02:24:41;103310.06;;;1.15;92.25
71504;BME280;59323;50.874;7.028;2023-02-10T02:27:41;103319.72;;;1.16;92.27
71504;BME280;59323;50.874;7.028;2023-02-10T02:33:49;103316.00;;;1.17;92.99
71504;BME280;59323;50.874;7.028;2023-02-10T02:36:25;103314.13;;;1.17;92.50
71504;BME280;59323;50.874;7.028;2023-02-10T02:38:59;103314.47;;;1.21;93.28
71504;BME280;59323;50.874;7.028;2023-02-10T02:41:25;103324.13;;;1.22;93.22
71504;BME280;59323;50.874;7.028;2023-02-10T02:43:51;103318.78;;;1.22;93.45
71504;BME280;59323;50.874;7.028;2023-02-10T02:46:28;103324.72;;;1.24;94.11
71504;BME280;59323;50.874;7.028;2023-02-10T02:49:21;103333.31;;;1.26;93.74
71504;BME280;59323;50.874;7.028;2023-02-10T02:54:51;103325.03;;;1.27;93.73
71504;BME280;59323;50.874;7.028;2023-02-10T02:57:52;103331.81;;;1.30;93.93
71504;BME280;59323;50.874;7.028;2023-02-10T03:00:22;103330.78;;;1.31;93.38
71504;BME280;59323;50.874;7.028;2023-02-10T03:02:49;103338.81;;;1.31;94.09
71504;BME280;59323;50.874;7.028;2023-02-10T03:05:22;103329.34;;;1.28;93.66
71504;BME280;59323;50.874;7.028;2023-02-10T03:07:49;103333.44;;;1.31;93.75
71504;BME280;59323;50.874;7.028;2023-02-10T03:10:14;103335.88;;;1.33;93.50
71504;BME280;59323;50.874;7.028;2023-02-10T03:12:40;103335.06;;;1.32;94.08
71504;BME280;59323;50.874;7.028;2023-02-10T03:15:05;103338.56;;;1.33;93.82
71504;BME280;59323;50.874;7.028;2023-02-10T03:17:31;103344.16;;;1.31;94.22
71504;BME280;59323;50.874;7.028;2023-02-10T03:19:56;103349.28;;;1.33;93.66
71504;BME280;59323;50.874;7.028;2023-02-10T03:22:21;103345.41;;;1.28;92.90
71504;BME280;59323;50.874;7.028;2023-02-10T03:24:47;103345.22;;;1.30;93.67
71504;BME280;59323;50.874;7.028;2023-02-10T03:27:12;103348.47;;;1.32;93.72
71504;BME280;59323;50.874;7.028;2023-02-10T03:29:38;103347.66;;;1.32;93.49
71504;BME280;59323;50.874;7.028;2023-02-10T03:32:03;103343.34;;;1.31;94.22
71504;BME280;59323;50.874;7.028;2023-02-10T03:34:30;103340.88;;;1.29;92.93
71504;BME280;59323;50.874;7.028;2023-02-10T03:36:56;103347.28;;;1.28;93.86
71504;BME280;59323;50.874;7.028;2023-02-10T03:39:21;103344.50;;;1.35;93.94
71504;BME280;59323;50.874;7.028;2023-02-10T03:41:46;103353.25;;;1.30;92.19
71504;BME280;59323;50.874;7.028;2023-02-10T03:44:11;103354.75;;;1.26;90.52
71504;BME280;59323;50.874;7.028;2023-02-10T03:46:37;103352.78;;;1.21;90.76
71504;BME280;59323;50.874;7.028;2023-02-10T03:49:03;103353.81;;;1.20;90.72
71504;BME280;59323;50.874;7.028;2023-02-10T03:51:29;103349.19;;;1.16;90.99
71504;BME280;59323;50.874;7.028;2023-02-10T03:53:54;103351.03;;;1.15;90.74
71504;BME280;59323;50.874;7.028;2023-02-10T03:56:20;103350.47;;;1.13;91.04
71504;BME280;59323;50.874;7.028;2023-02-10T03:58:45;103346.41;;;1.11;90.84
71504;BME280;59323;50.874;7.028;2023-02-10T04:01:12;103333.25;;;1.09;92.25
71504;BME280;59323;50.874;7.028;2023-02-10T04:03:38;103323.25;;;1.05;91.32
71504;BME280;59323;50.874;7.028;2023-02-10T04:06:04;103319.41;;;1.01;91.85
71504;BME280;59323;50.874;7.028;2023-02-10T04:08:29;103321.03;;;1.02;93.55
71504;BME280;59323;50.874;7.028;2023-02-10T04:10:55;103319.06;;;0.97;93.65
71504;BME280;59323;50.874;7.028;2023-02-10T04:13:20;103323.28;;;0.93;93.25
71504;BME280;59323;50.874;7.028;2023-02-10T04:15:45;103315.00;;;0.94;94.29
71504;BME280;59323;50.874;7.028;2023-02-10T04:18:11;103299.88;;;0.88;94.84
71504;BME280;59323;50.874;7.028;2023-02-10T04:20:36;103302.56;;;0.88;94.26
71504;BME280;59323;50.874;7.028;2023-02-10T04:23:01;103305.00;;;0.90;95.14
71504;BME280;59323;50.874;7.028;2023-02-10T04:25:27;103302.47;;;0.83;94.52
71504;BME280;59323;50.874;7.028;2023-02-10T04:27:52;103312.00;;;0.79;95.63
71504;BME280;59323;50.874;7.028;2023-02-10T04:30:17;103320.50;;;0.76;94.58
71504;BME280;59323;50.874;7.028;2023-02-10T04:32:43;103319.09;;;0.74;93.29
71504;BME280;59323;50.874;7.028;2023-02-10T04:35:08;103310.63;;;0.65;94.69
71504;BME280;59323;50.874;7.028;2023-02-10T04:37:33;103330.84;;;0.73;95.13
71504;BME280;59323;50.874;7.028;2023-02-10T04:39:59;103327.59;;;0.71;95.16
71504;BME280;59323;50.874;7.028;2023-02-10T04:42:24;103332.03;;;0.65;95.21
71504;BME280;59323;50.874;7.028;2023-02-10T04:44:58;103331.66;;;0.61;95.41
71504;BME280;59323;50.874;7.028;2023-02-10T04:47:25;103351.44;;;0.60;95.03
71504;BME280;59323;50.874;7.028;2023-02-10T04:49:51;103337.47;;;0.58;95.23
71504;BME280;59323;50.874;7.028;2023-02-10T04:52:16;103338.41;;;0.52;94.87
71504;BME280;59323;50.874;7.028;2023-02-10T04:54:42;103343.75;;;0.52;95.68
71504;BME280;59323;50.874;7.028;2023-02-10T04:57:07;103353.28;;;0.48;94.98
71504;BME280;59323;50.874;7.028;2023-02-10T04:59:32;103353.75;;;0.45;94.23
71504;BME280;59323;50.874;7.028;2023-02-10T05:01:58;103349.66;;;0.43;94.29
71504;BME280;59323;50.874;7.028;2023-02-10T05:04:23;103357.34;;;0.39;93.15
71504;BME280;59323;50.874;7.028;2023-02-10T05:06:48;103354.91;;;0.38;94.87
71504;BME280;59323;50.874;7.028;2023-02-10T05:09:14;103359.31;;;0.32;95.33
71504;BME280;59323;50.874;7.028;2023-02-10T05:11:39;103365.13;;;0.29;94.43
71504;BME280;59323;50.874;7.028;2023-02-10T05:14:04;103368.25;;;0.26;93.61
71504;BME280;59323;50.874;7.028;2023-02-10T05:16:30;103356.16;;;0.23;94.96
71504;BME280;59323;50.874;7.028;2023-02-10T05:18:55;103352.31;;;0.19;94.41
71504;BME280;59323;50.874;7.028;2023-02-10T05:21:20;103354.19;;;0.19;93.64
71504;BME280;59323;50.874;7.028;2023-02-10T05:23:46;103354.63;;;0.16;93.38
71504;BME280;59323;50.874;7.028;2023-02-10T05:26:11;103353.47;;;0.12;93.43
71504;BME280;59323;50.874;7.028;2023-02-10T05:28:37;103355.09;;;0.13;94.35
71504;BME280;59323;50.874;7.028;2023-02-10T05:31:02;103353.25;;;0.13;93.46
71504;BME280;59323;50.874;7.028;2023-02-10T05:33:31;103352.41;;;0.13;94.21
71504;BME280;59323;50.874;7.028;2023-02-10T05:35:57;103358.81;;;0.12;95.13
71504;BME280;59323;50.874;7.028;2023-02-10T05:38:22;103357.63;;;0.08;96.03
71504;BME280;59323;50.874;7.028;2023-02-10T05:40:49;103370.56;;;0.11;96.63
71504;BME280;59323;50.874;7.028;2023-02-10T05:43:14;103373.22;;;0.11;97.22
71504;BME280;59323;50.874;7.028;2023-02-10T05:45:39;103372.63;;;0.09;97.52
71504;BME280;59323;50.874;7.028;2023-02-10T05:48:07;103370.66;;;0.04;95.93
71504;BME280;59323;50.874;7.028;2023-02-10T05:50:33;103372.06;;;0.07;96.82
71504;BME280;59323;50.874;7.028;2023-02-10T05:52:58;103374.59;;;0.02;95.55
71504;BME280;59323;50.874;7.028;2023-02-10T05:55:24;103377.69;;;-0.02;94.92
71504;BME280;59323;50.874;7.028;2023-02-10T05:57:51;103376.06;;;-0.03;95.64
71504;BME280;59323;50.874;7.028;2023-02-10T06:00:17;103374.66;;;-0.05;94.76
71504;BME280;59323;50.874;7.028;2023-02-10T06:02:42;103372.22;;;-0.07;95.46
71504;BME280;59323;50.874;7.028;2023-02-10T06:05:08;103382.09;;;-0.07;95.70
71504;BME280;59323;50.874;7.028;2023-02-10T06:07:33;103379.41;;;-0.07;97.15
71504;BME280;59323;50.874;7.028;2023-02-10T06:09:58;103364.88;;;-0.11;96.54
71504;BME280;59323;50.874;7.028;2023-02-10T06:12:24;103371.94;;;-0.17;95.84
71504;BME280;59323;50.874;7.028;2023-02-10T06:14:49;103381.59;;;-0.16;95.00
71504;BME280;59323;50.874;7.028;2023-02-10T06:17:14;103378.34;;;-0.18;94.67
71504;BME280;59323;50.874;7.028;2023-02-10T06:19:40;103379.84;;;-0.22;95.23
71504;BME280;59323;50.874;7.028;2023-02-10T06:22:06;103377.38;;;-0.23;94.21
71504;BME280;59323;50.874;7.028;2023-02-10T06:24:32;103373.53;;;-0.27;94.33
71504;BME280;59323;50.874;7.028;2023-02-10T06:26:58;103383.63;;;-0.29;94.54
71504;BME280;59323;50.874;7.028;2023-02-10T06:29:23;103376.88;;;-0.32;95.23
71504;BME280;59323;50.874;7.028;2023-02-10T06:31:49;103381.88;;;-0.36;95.17
71504;BME280;59323;50.874;7.028;2023-02-10T06:34:14;103394.41;;;-0.36;95.46
71504;BME280;59323;50.874;7.028;2023-02-10T06:36:40;103397.06;;;-0.36;95.42
71504;BME280;59323;50.874;7.028;2023-02-10T06:39:05;103400.78;;;-0.37;95.22
71504;BME280;59323;50.874;7.028;2023-02-10T06:41:31;103402.88;;;-0.39;96.50
71504;BME280;59323;50.874;7.028;2023-02-10T06:43:57;103406.34;;;-0.39;96.86
71504;BME280;59323;50.874;7.028;2023-02-10T06:46:22;103407.75;;;-0.36;97.61
71504;BME280;59323;50.874;7.028;2023-02-10T06:48:48;103409.53;;;-0.30;97.78
71504;BME280;59323;50.874;7.028;2023-02-10T06:51:13;103406.63;;;-0.28;98.50
71504;BME280;59323;50.874;7.028;2023-02-10T06:53:39;103413.38;;;-0.26;97.75
71504;BME280;59323;50.874;7.028;2023-02-10T06:56:05;103419.19;;;-0.29;98.13
71504;BME280;59323;50.874;7.028;2023-02-10T06:58:31;103420.22;;;-0.30;98.14
71504;BME280;59323;50.874;7.028;2023-02-10T07:00:56;103430.91;;;-0.30;97.69
71504;BME280;59323;50.874;7.028;2023-02-10T07:03:23;103427.63;;;-0.32;97.50
71504;BME280;59323;50.874;7.028;2023-02-10T07:05:50;103431.34;;;-0.33;97.01
71504;BME280;59323;50.874;7.028;2023-02-10T07:08:15;103435.06;;;-0.34;97.77
71504;BME280;59323;50.874;7.028;2023-02-10T07:10:41;103437.50;;;-0.33;97.40
71504;BME280;59323;50.874;7.028;2023-02-10T07:13:06;103443.91;;;-0.34;98.03
71504;BME280;59323;50.874;7.028;2023-02-10T07:15:31;103444.47;;;-0.32;97.90
71504;BME280;59323;50.874;7.028;2023-02-10T07:17:57;103439.97;;;-0.31;98.26
71504;BME280;59323;50.874;7.028;2023-02-10T07:20:23;103457.63;;;-0.30;98.73
71504;BME280;59323;50.874;7.028;2023-02-10T07:22:49;103456.34;;;-0.27;99.04
71504;BME280;59323;50.874;7.028;2023-02-10T07:25:16;103456.88;;;-0.19;98.71
71504;BME280;59323;50.874;7.028;2023-02-10T07:27:42;103453.75;;;-0.16;98.69
71504;BME280;59323;50.874;7.028;2023-02-10T07:30:09;103450.63;;;-0.13;99.62
71504;BME280;59323;50.874;7.028;2023-02-10T07:32:36;103453.66;;;-0.09;98.86
71504;BME280;59323;50.874;7.028;2023-02-10T07:35:02;103456.09;;;-0.08;99.29
71504;BME280;59323;50.874;7.028;2023-02-10T07:37:28;103456.47;;;-0.04;98.57
71504;BME280;59323;50.874;7.028;2023-02-10T07:39:54;103450.91;;;-0.03;98.66
71504;BME280;59323;50.874;7.028;2023-02-10T07:42:19;103455.81;;;0.01;98.78
71504;BME280;59323;50.874;7.028;2023-02-10T07:44:44;103447.13;;;0.05;98.72
71504;BME280;59323;50.874;7.028;2023-02-10T07:47:10;103450.38;;;0.07;98.98
71504;BME280;59323;50.874;7.028;2023-02-10T07:49:36;103444.22;;;0.07;98.75
71504;BME280;59323;50.874;7.028;2023-02-10T07:52:01;103453.19;;;0.12;98.47
71504;BME280;59323;50.874;7.028;2023-02-10T07:54:27;103442.28;;;0.14;98.56
71504;BME280;59323;50.874;7.028;2023-02-10T07:56:53;103441.59;;;0.18;97.89
71504;BME280;59323;50.874;7.028;2023-02-10T07:59:18;103439.28;;;0.22;98.26
71504;BME280;59323;50.874;7.028;2023-02-10T08:01:43;103443.72;;;0.28;98.06
71504;BME280;59323;50.874;7.028;2023-02-10T08:04:10;103445.34;;;0.29;97.98
71504;BME280;59323;50.874;7.028;2023-02-10T08:06:35;103451.28;;;0.31;97.50
71504;BME280;59323;50.874;7.028;2023-02-10T08:09:01;103452.44;;;0.35;98.13
71504;BME280;59323;50.874;7.028;2023-02-10T08:11:27;103455.94;;;0.36;97.63
71504;BME280;59323;50.874;7.028;2023-02-10T08:13:52;103457.56;;;0.37;97.68
71504;BME280;59323;50.874;7.028;2023-02-10T08:16:17;103452.81;;;0.39;97.94
71504;BME280;59323;50.874;7.028;2023-02-10T08:18:43;103453.97;;;0.43;97.58
71504;BME280;59323;50.874;7.028;2023-02-10T08:21:08;103454.34;;;0.46;97.29
71504;BME280;59323;50.874;7.028;2023-02-10T08:23:34;103455.06;;;0.53;97.84
71504;BME280;59323;50.874;7.028;2023-02-10T08:26:08;103460.53;;;0.58;97.71
71504;BME280;59323;50.874;7.028;2023-02-10T08:28:35;103453.44;;;0.64;97.23
71504;BME280;59323;50.874;7.028;2023-02-10T08:31:01;103451.72;;;0.70;97.33
71504;BME280;59323;50.874;7.028;2023-02-10T08:33:27;103452.31;;;0.72;97.49
71504;BME280;59323;50.874;7.028;2023-02-10T08:35:53;103451.84;;;0.75;96.95
71504;BME280;59323;50.874;7.028;2023-02-10T08:38:18;103452.44;;;0.77;97.09
71504;BME280;59323;50.874;7.028;2023-02-10T08:40:43;103446.63;;;0.80;96.79
71504;BME280;59323;50.874;7.028;2023-02-10T08:43:09;103443.50;;;0.83;96.36
71504;BME280;59323;50.874;7.028;2023-02-10T08:45:34;103444.66;;;0.87;97.01
71504;BME280;59323;50.874;7.028;2023-02-10T08:47:59;103444.19;;;0.90;96.66
71504;BME280;59323;50.874;7.028;2023-02-10T08:50:26;103446.97;;;0.95;96.37
71504;BME280;59323;50.874;7.028;2023-02-10T08:52:52;103452.09;;;0.97;96.30
71504;BME280;59323;50.874;7.028;2023-02-10T08:55:18;103466.06;;;0.99;96.07
71504;BME280;59323;50.874;7.028;2023-02-10T08:57:43;103477.72;;;1.04;95.35
71504;BME280;59323;50.874;7.028;2023-02-10T09:00:09;103465.16;;;1.05;95.89
71504;BME280;59323;50.874;7.028;2023-02-10T09:02:35;103466.06;;;1.10;95.75
71504;BME280;59323;50.874;7.028;2023-02-10T09:05:01;103465.59;;;1.13;95.16
71504;BME280;59323;50.874;7.028;2023-02-10T09:07:26;103461.75;;;1.21;95.38
71504;BME280;59323;50.874;7.028;2023-02-10T09:09:51;103466.41;;;1.25;95.26
71504;BME280;59323;50.874;7.028;2023-02-10T09:12:17;103460.81;;;1.27;94.87
71504;BME280;59323;50.874;7.028;2023-02-10T09:14:42;103462.84;;;1.32;94.65
71504;BME280;59323;50.874;7.028;2023-02-10T09:17:08;103468.06;;;1.38;95.08
71504;BME280;59323;50.874;7.028;2023-02-10T09:19:37;103462.47;;;1.40;94.93
71504;BME280;59323;50.874;7.028;2023-02-10T09:22:04;103468.75;;;1.45;94.45
71504;BME280;59323;50.874;7.028;2023-02-10T09:24:30;103467.22;;;1.49;94.75
71504;BME280;59323;50.874;7.028;2023-02-10T09:26:56;103472.34;;;1.51;94.35
71504;BME280;59323;50.874;7.028;2023-02-10T09:29:21;103466.28;;;1.55;94.48
71504;BME280;59323;50.874;7.028;2023-02-10T09:31:47;103467.78;;;1.63;94.36
71504;BME280;59323;50.874;7.028;2023-02-10T09:34:12;103461.13;;;1.66;94.55
71504;BME280;59323;50.874;7.028;2023-02-10T09:36:37;103474.97;;;1.74;94.87
71504;BME280;59323;50.874;7.028;2023-02-10T09:39:03;103466.31;;;1.84;93.66
71504;BME280;59323;50.874;7.028;2023-02-10T09:46:59;103479.97;;;2.22;91.96
71504;BME280;59323;50.874;7.028;2023-02-10T09:49:50;103477.31;;;2.39;92.41
71504;BME280;59323;50.874;7.028;2023-02-10T09:54:44;103478.75;;;2.75;92.53
71504;BME280;59323;50.874;7.028;2023-02-10T09:57:34;103476.81;;;3.04;90.74
71504;BME280;59323;50.874;7.028;2023-02-10T10:00:03;103477.44;;;3.28;89.38
71504;BME280;59323;50.874;7.028;2023-02-10T10:02:46;103484.53;;;3.56;88.77
71504;BME280;59323;50.874;7.028;2023-02-10T10:11:44;103490.81;;;4.32;85.22
71504;BME280;59323;50.874;7.028;2023-02-10T10:14:17;103495.97;;;4.61;84.77
71504;BME280;59323;50.874;7.028;2023-02-10T10:22:25;103499.09;;;5.17;81.33
71504;BME280;59323;50.874;7.028;2023-02-10T10:25:21;103507.34;;;5.37;80.64
71504;BME280;59323;50.874;7.028;2023-02-10T10:27:59;103503.06;;;5.46;80.48
71504;BME280;59323;50.874;7.028;2023-02-10T10:30:56;103499.88;;;5.54;79.63
71504;BME280;59323;50.874;7.028;2023-02-10T10:33:28;103495.00;;;5.51;78.82
71504;BME280;59323;50.874;7.028;2023-02-10T10:35:56;103505.38;;;5.74;80.13
71504;BME280;59323;50.874;7.028;2023-02-10T10:38:33;103509.44;;;5.82;79.15
71504;BME280;59323;50.874;7.028;2023-02-10T10:41:07;103512.69;;;5.84;78.12
71504;BME280;59323;50.874;7.028;2023-02-10T10:43:55;103512.53;;;5.96;78.51
71504;BME280;59323;50.874;7.028;2023-02-10T10:46:33;103506.63;;;6.04;77.97
71504;BME280;59323;50.874;7.028;2023-02-10T10:49:00;103500.44;;;6.14;77.42
71504;BME280;59323;50.874;7.028;2023-02-10T10:51:26;103502.88;;;6.25;77.08
71504;BME280;59323;50.874;7.028;2023-02-10T10:53:56;103499.38;;;6.20;75.57
71504;BME280;59323;50.874;7.028;2023-02-10T10:56:46;103506.94;;;6.28;76.50
71504;BME280;59323;50.874;7.028;2023-02-10T11:01:50;103503.97;;;6.19;76.71
71504;BME280;59323;50.874;7.028;2023-02-10T11:04:22;103494.22;;;6.13;76.81
71504;BME280;59323;50.874;7.028;2023-02-10T11:06:53;103491.78;;;6.12;78.08
71504;BME280;59323;50.874;7.028;2023-02-10T11:09:47;103478.25;;;6.01;77.37
71504;BME280;59323;50.874;7.028;2023-02-10T11:12:21;103479.34;;;6.00;78.00
71504;BME280;59323;50.874;7.028;2023-02-10T11:14:51;103472.59;;;6.03;77.95
71504;BME280;59323;50.874;7.028;2023-02-10T11:17:39;103474.50;;;6.08;77.11
71504;BME280;59323;50.874;7.028;2023-02-10T11:20:24;103470.72;;;6.14;78.34
71504;BME280;59323;50.874;7.028;2023-02-10T11:23:16;103473.69;;;6.12;76.61
71504;BME280;59323;50.874;7.028;2023-02-10T11:25:46;103459.41;;;6.12;76.96
71504;BME280;59323;50.874;7.028;2023-02-10T11:28:18;103468.28;;;6.07;77.25
71504;BME280;59323;50.874;7.028;2023-02-10T11:30:47;103457.75;;;6.00;78.20
71504;BME280;59323;50.874;7.028;2023-02-10T11:33:26;103452.31;;;5.90;78.04
71504;BME280;59323;50.874;7.028;2023-02-10T11:35:58;103443.41;;;5.90;78.13
71504;BME280;59323;50.874;7.028;2023-02-10T11:38:25;103443.59;;;5.83;78.79
71504;BME280;59323;50.874;7.028;2023-02-10T11:41:00;103443.91;;;5.87;79.85
71504;BME280;59323;50.874;7.028;2023-02-10T11:43:32;103435.00;;;5.86;78.21
71504;BME280;59323;50.874;7.028;2023-02-10T11:46:04;103437.72;;;5.86;78.24
71504;BME280;59323;50.874;7.028;2023-02-10T11:48:31;103435.81;;;5.87;79.01
71504;BME280;59323;50.874;7.028;2023-02-10T11:51:14;103430.69;;;5.85;78.36
71504;BME280;59323;50.874;7.028;2023-02-10T11:53:42;103427.16;;;5.85;78.49
71504;BME280;59323;50.874;7.028;2023-02-10T11:59:44;103422.38;;;5.92;79.34
71504;BME280;59323;50.874;7.028;2023-02-10T12:07:55;103414.03;;;6.14;78.78
71504;BME280;59323;50.874;7.028;2023-02-10T12:10:30;103418.09;;;6.21;77.83
71504;BME280;59323;50.874;7.028;2023-02-10T12:16:12;103407.84;;;6.28;78.96
71504;BME280;59323;50.874;7.028;2023-02-10T12:19:01;103402.72;;;6.37;79.04
71504;BME280;59323;50.874;7.028;2023-02-10T12:35:42;103404.81;;;7.06;75.93
71504;BME280;59323;50.874;7.028;2023-02-10T12:41:23;103395.03;;;7.30;74.56
71504;BME280;59323;50.874;7.028;2023-02-10T12:44:11;103400.66;;;7.44;72.04
71504;BME280;59323;50.874;7.028;2023-02-10T12:49:25;103391.66;;;7.54;69.88
71504;BME280;59323;50.874;7.028;2023-02-10T12:52:04;103384.31;;;7.64;69.44
71504;BME280;59323;50.874;7.028;2023-02-10T12:54:50;103381.81;;;7.73;67.81
71504;BME280;59323;50.874;7.028;2023-02-10T12:57:29;103378.81;;;7.80;66.80
71504;BME280;59323;50.874;7.028;2023-02-10T13:00:02;103379.91;;;7.79;67.63
71504;BME280;59323;50.874;7.028;2023-02-10T13:05:04;103363.94;;;7.82;66.35
71504;BME280;59323;50.874;7.028;2023-02-10T13:10:18;103349.00;;;7.90;67.05
71504;BME280;59323;50.874;7.028;2023-02-10T13:12:47;103362.25;;;7.91;66.99
71504;BME280;59323;50.874;7.028;2023-02-10T13:15:23;103348.38;;;7.98;63.72
71504;BME280;59323;50.874;7.028;2023-02-10T13:17:51;103348.16;;;7.94;63.97
71504;BME280;59323;50.874;7.028;2023-02-10T13:20:49;103350.13;;;7.84;65.11
71504;BME280;59323;50.874;7.028;2023-02-10T13:23:44;103352.00;;;7.83;65.81
71504;BME280;59323;50.874;7.028;2023-02-10T13:29:21;103334.44;;;7.76;65.55
71504;BME280;59323;50.874;7.028;2023-02-10T13:34:29;103329.31;;;7.74;64.48
71504;BME280;59323;50.874;7.028;2023-02-10T13:37:08;103330.19;;;7.64;65.13
71504;BME280;59323;50.874;7.028;2023-02-10T13:39:37;103332.66;;;7.61;66.17
71504;BME280;59323;50.874;7.028;2023-02-10T13:42:09;103339.16;;;7.60;65.95
71504;BME280;59323;50.874;7.028;2023-02-10T13:44:40;103327.22;;;7.61;66.25
71504;BME280;59323;50.874;7.028;2023-02-10T13:49:34;103325.34;;;7.61;66.11
71504;BME280;59323;50.874;7.028;2023-02-10T13:52:17;103326.44;;;7.60;66.09
71504;BME280;59323;50.874;7.028;2023-02-10T13:54:59;103322.09;;;7.59;66.06
71504;BME280;59323;50.874;7.028;2023-02-10T13:57:28;103314.84;;;7.50;67.34
71504;BME280;59323;50.874;7.028;2023-02-10T14:00:24;103318.94;;;7.47;66.73
71504;BME280;59323;50.874;7.028;2023-02-10T14:03:20;103318.94;;;7.47;66.70
71504;BME280;59323;50.874;7.028;2023-02-10T14:05:54;103323.28;;;7.43;66.48
71504;BME280;59323;50.874;7.028;2023-02-10T14:08:27;103319.78;;;7.43;66.32
71504;BME280;59323;50.874;7.028;2023-02-10T14:13:26;103320.53;;;7.48;65.46
71504;BME280;59323;50.874;7.028;2023-02-10T14:16:04;103317.03;;;7.48;65.76
71504;BME280;59323;50.874;7.028;2023-02-10T14:18:35;103312.97;;;7.50;65.99
71504;BME280;59323;50.874;7.028;2023-02-10T14:23:32;103306.97;;;7.58;65.33
71504;BME280;59323;50.874;7.028;2023-02-10T14:26:03;103308.59;;;7.54;65.32
71504;BME280;59323;50.874;7.028;2023-02-10T14:28:33;103312.69;;;7.52;65.41
71504;BME280;59323;50.874;7.028;2023-02-10T14:31:03;103309.16;;;7.51;65.67
71504;BME280;59323;50.874;7.028;2023-02-10T14:33:33;103308.59;;;7.54;64.91
71504;BME280;59323;50.874;7.028;2023-02-10T14:36:03;103304.56;;;7.52;64.69
71504;BME280;59323;50.874;7.028;2023-02-10T14:38:31;103301.59;;;7.48;65.21